Time;durP1;ratioP1;P1;durP2;ratioP2;P2;SDS_P1;SDS_P2;PMS_P1;PMS_P2;Temp;Humidity;BMP_temperature;BMP_pressure;BME280_temperature;BME280_humidity;BME280_pressure;Samples;Min_cycle;Max_cycle;Signal;HPM_P1;HPM_P2
2022/03/02 00:01:09;;;;;;;14.30;6.60;;;;;;;5.89;72.19;102780.44;5035286;27;101242;-35
2022/03/02 00:03:35;;;;;;;15.45;6.65;;;;;;;5.91;71.72;102781.31;5035524;27;96728;-35
2022/03/02 00:06:01;;;;;;;16.48;7.05;;;;;;;5.94;71.97;102793.88;5034840;27;96929;-35
2022/03/02 00:08:26;;;;;;;16.50;7.57;;;;;;;5.93;71.93;102787.59;5052878;27;109720;-35
2022/03/02 00:10:51;;;;;;;16.17;8.32;;;;;;;5.88;71.39;102784.03;5053488;27;97816;-35
2022/03/02 00:13:17;;;;;;;16.58;7.05;;;;;;;5.86;71.79;102776.88;5052731;27;118179;-35
2022/03/02 00:15:42;;;;;;;14.63;6.68;;;;;;;5.89;71.77;102788.50;5053605;27;96755;-35
2022/03/02 00:18:08;;;;;;;19.08;6.72;;;;;;;5.89;71.95;102783.13;5052461;27;117951;-35
2022/03/02 00:20:34;;;;;;;14.57;7.30;;;;;;;5.89;71.79;102793.00;5053492;27;97713;-35
2022/03/02 00:22:59;;;;;;;17.73;6.28;;;;;;;5.87;71.87;102776.88;5053607;27;96628;-35
2022/03/02 00:25:25;;;;;;;13.63;6.95;;;;;;;5.87;71.59;102784.06;5053510;27;101498;-35
2022/03/02 00:27:50;;;;;;;13.32;6.50;;;;;;;5.77;71.60;102766.22;5052223;27;120374;-35
2022/03/02 00:30:15;;;;;;;14.05;5.55;;;;;;;5.87;71.64;102789.44;5052744;27;97838;-35
2022/03/02 00:32:42;;;;;;;14.85;6.95;;;;;;;5.83;71.56;102779.63;5052990;27;96583;-35
2022/03/02 00:35:08;;;;;;;11.63;6.65;;;;;;;5.85;71.94;102776.00;5053291;27;97154;-35
2022/03/02 00:37:33;;;;;;;12.85;6.15;;;;;;;5.87;71.57;102781.38;5052847;27;99247;-35
2022/03/02 00:39:58;;;;;;;27.77;8.45;;;;;;;5.86;71.79;102779.56;5052632;27;112737;-35
2022/03/02 00:42:24;;;;;;;18.10;8.32;;;;;;;5.85;71.29;102780.50;5053126;27;96684;-35
2022/03/02 00:44:49;;;;;;;14.13;6.43;;;;;;;5.88;71.27;102785.81;5053086;27;96497;-35
2022/03/02 00:47:15;;;;;;;14.55;6.25;;;;;;;5.80;71.81;102769.78;5034438;27;101100;-35
2022/03/02 00:49:41;;;;;;;20.20;7.05;;;;;;;5.87;71.40;102776.00;5053216;27;99172;-35
2022/03/02 00:52:09;;;;;;;11.55;5.88;;;;;;;5.88;71.86;102783.13;5052961;27;96484;-35
2022/03/02 00:54:34;;;;;;;18.40;8.30;;;;;;;5.87;71.77;102787.63;5034671;27;96806;-35
2022/03/02 00:57:00;;;;;;;12.95;6.63;;;;;;;5.83;71.85;102783.19;5052102;27;98062;-35
2022/03/02 00:59:25;;;;;;;14.68;7.60;;;;;;;5.80;71.41;102772.47;5052715;27;102842;-35
2022/03/02 01:01:50;;;;;;;17.67;7.72;;;;;;;5.81;72.30;102776.94;5052634;27;96760;-35
2022/03/02 01:04:16;;;;;;;14.52;5.55;;;;;;;5.83;72.20;102771.53;5034393;27;96873;-35
2022/03/02 01:06:41;;;;;;;13.93;7.25;;;;;;;5.80;71.47;102767.09;5051106;27;126694;-35
2022/03/02 01:09:07;;;;;;;10.23;5.97;;;;;;;5.77;71.51;102767.13;5033199;27;126780;-35
2022/03/02 01:11:32;;;;;;;10.95;4.55;;;;;;;5.73;72.17;102751.94;5052741;27;96410;-35
2022/03/02 01:13:57;;;;;;;11.48;6.20;;;;;;;5.78;71.73;102758.16;5052803;27;96756;-35
2022/03/02 01:16:23;;;;;;;25.27;7.00;;;;;;;5.73;71.94;102754.63;5052551;27;97922;-35
2022/03/02 01:18:48;;;;;;;14.02;6.18;;;;;;;5.77;71.73;102755.47;5052354;27;102693;-35
2022/03/02 01:21:13;;;;;;;16.65;7.20;;;;;;;5.74;71.97;102756.38;5052230;27;96531;-35
2022/03/02 01:23:39;;;;;;;14.65;7.18;;;;;;;5.68;72.81;102743.03;5052744;27;96806;-34
2022/03/02 01:26:04;;;;;;;8.85;5.95;;;;;;;5.68;72.08;102740.34;5051428;27;122335;-35
2022/03/02 01:28:30;;;;;;;13.75;7.03;;;;;;;5.69;72.09;102742.09;5052017;27;98896;-35
2022/03/02 01:30:55;;;;;;;18.40;6.75;;;;;;;5.72;72.10;102745.66;5052698;27;96481;-35
2022/03/02 01:33:21;;;;;;;10.75;5.35;;;;;;;5.71;71.88;102745.69;5052007;27;111926;-35
2022/03/02 01:35:46;;;;;;;10.75;6.28;;;;;;;5.74;71.89;102745.63;5052375;27;97970;-35
2022/03/02 01:38:11;;;;;;;10.57;6.07;;;;;;;5.77;71.79;102739.31;5052726;27;97549;-35
2022/03/02 01:40:37;;;;;;;11.65;6.88;;;;;;;5.69;71.30;102736.72;5051491;27;113868;-35
2022/03/02 01:43:03;;;;;;;15.98;7.32;;;;;;;5.73;71.89;102739.38;5055609;27;97115;-35
2022/03/02 01:45:28;;;;;;;12.75;6.18;;;;;;;5.62;72.04;102713.50;5036926;27;100789;-35
2022/03/02 01:47:57;;;;;;;14.60;6.90;;;;;;;5.68;71.75;102719.72;5055868;27;97311;-35
2022/03/02 01:50:22;;;;;;;9.77;5.30;;;;;;;5.69;72.21;102721.47;5037423;27;97851;-35
2022/03/02 01:52:47;;;;;;;13.15;6.13;;;;;;;5.71;72.13;102724.16;5055846;27;96806;-35
2022/03/02 01:55:14;;;;;;;11.15;5.95;;;;;;;5.68;71.81;102721.53;5036285;27;124634;-35
2022/03/02 01:57:40;;;;;;;9.50;6.15;;;;;;;5.66;72.32;102712.59;5037176;27;101274;-35
2022/03/02 02:00:07;;;;;;;21.42;7.28;;;;;;;5.65;71.67;102716.16;5037290;27;96536;-35
2022/03/02 02:02:33;;;;;;;15.88;8.20;;;;;;;5.59;72.26;102714.44;5055767;27;96659;-35
2022/03/02 02:05:17;;;;;;;26.08;8.95;;;;;;;5.57;71.98;102720.75;5055433;27;97469;-35
2022/03/02 02:07:43;;;;;;;13.32;5.93;;;;;;;5.59;71.87;102721.63;5055039;27;99272;-35
2022/03/02 02:10:10;;;;;;;15.30;7.05;;;;;;;5.59;71.63;102710.88;5036539;27;97158;-35
2022/03/02 02:12:36;;;;;;;13.13;6.63;;;;;;;5.57;72.26;102712.66;5037180;27;96824;-35
2022/03/02 02:15:03;;;;;;;13.30;5.97;;;;;;;5.52;72.04;102718.97;5055163;27;99451;-35
2022/03/02 02:17:29;;;;;;;12.93;6.43;;;;;;;5.52;71.73;102710.91;5037016;27;101119;-35
2022/03/02 02:19:54;;;;;;;9.38;5.90;;;;;;;5.53;72.14;102719.91;5055567;27;96488;-35
2022/03/02 02:22:19;;;;;;;9.90;4.20;;;;;;;5.48;73.11;102703.81;5054708;27;109090;-35
2022/03/02 02:24:45;;;;;;;10.13;6.20;;;;;;;5.48;72.00;102711.88;5055257;27;98045;-35
2022/03/02 02:27:12;;;;;;;12.23;6.18;;;;;;;5.46;71.62;102705.63;5055626;27;97875;-35
2022/03/02 02:29:39;;;;;;;12.68;6.10;;;;;;;5.40;72.20;102694.03;5036646;27;96493;-34
2022/03/02 02:32:05;;;;;;;17.65;7.38;;;;;;;5.33;71.62;102685.13;5036887;27;96792;-35
2022/03/02 02:34:31;;;;;;;11.95;5.72;;;;;;;5.39;72.23;102695.84;5036115;27;100966;-35
2022/03/02 02:36:58;;;;;;;14.45;6.75;;;;;;;5.39;71.57;102698.53;5054967;27;97851;-35
2022/03/02 02:39:24;;;;;;;11.23;5.60;;;;;;;5.40;71.77;102686.84;5036704;27;96717;-35
2022/03/02 02:41:50;;;;;;;14.02;6.00;;;;;;;5.42;71.46;102690.44;5036803;27;96800;-35
2022/03/02 02:44:15;;;;;;;8.60;6.30;;;;;;;5.35;71.21;102677.06;5054787;27;97183;-35
2022/03/02 02:46:45;;;;;;;14.07;7.32;;;;;;;5.44;71.45;102688.63;5035778;27;123801;-35
2022/03/02 02:49:10;;;;;;;13.23;6.47;;;;;;;5.39;71.38;102668.97;5036657;27;96709;-35
2022/03/02 02:51:36;;;;;;;18.65;6.65;;;;;;;5.43;71.56;102675.19;5055195;27;96754;-35
2022/03/02 02:54:02;;;;;;;12.18;6.18;;;;;;;5.43;71.82;102680.56;5053344;27;97593;-35
2022/03/02 02:56:28;;;;;;;16.15;6.43;;;;;;;5.42;71.05;102671.63;5036250;27;100921;-35
2022/03/02 02:58:53;;;;;;;11.15;5.78;;;;;;;5.38;71.49;102661.78;5054713;27;96474;-35
2022/03/02 03:01:18;;;;;;;18.90;7.50;;;;;;;5.38;71.51;102667.16;5054556;27;96725;-35
2022/03/02 03:03:44;;;;;;;11.23;5.38;;;;;;;5.40;71.39;102673.44;5054712;27;97847;-35
2022/03/02 03:06:10;;;;;;;13.82;5.85;;;;;;;5.41;71.46;102669.84;5053952;27;97886;-35
2022/03/02 03:08:35;;;;;;;9.35;5.10;;;;;;;5.40;71.26;102664.47;5054718;27;96617;-35
2022/03/02 03:11:06;;;;;;;15.77;6.80;;;;;;;5.39;71.12;102668.09;5054411;27;96809;-35
2022/03/02 03:13:31;;;;;;;10.73;6.13;;;;;;;5.37;71.06;102676.16;5054206;27;103695;-35
2022/03/02 03:15:57;;;;;;;19.25;7.55;;;;;;;5.28;71.31;102655.63;5054837;27;97795;-35
2022/03/02 03:18:22;;;;;;;12.27;7.43;;;;;;;5.32;71.34;102659.19;5054594;27;96487;-35
2022/03/02 03:20:48;;;;;;;21.95;6.28;;;;;;;5.32;71.13;102651.13;5054399;27;96945;-35
2022/03/02 03:23:13;;;;;;;12.82;5.80;;;;;;;5.30;71.13;102656.50;5053532;27;99723;-35
2022/03/02 03:25:38;;;;;;;16.00;7.15;;;;;;;5.30;71.05;102661.00;5054254;27;98026;-35
2022/03/02 03:28:05;;;;;;;10.15;4.63;;;;;;;5.31;70.87;102663.69;5054363;27;96531;-35
2022/03/02 03:30:30;;;;;;;14.95;6.50;;;;;;;5.31;71.01;102654.72;5035553;27;96956;-35
2022/03/02 03:32:56;;;;;;;13.75;6.72;;;;;;;5.29;71.25;102656.50;5053135;27;127715;-35
2022/03/02 03:35:23;;;;;;;12.25;6.45;;;;;;;5.26;71.18;102652.06;5053636;27;99358;-35
2022/03/02 03:37:48;;;;;;;14.68;6.70;;;;;;;5.26;70.73;102657.44;5053990;27;96737;-35
2022/03/02 03:40:15;;;;;;;13.95;6.13;;;;;;;5.23;71.26;102645.84;5054587;27;96759;-35
2022/03/02 03:42:41;;;;;;;11.93;7.00;;;;;;;5.21;71.36;102648.53;5035477;27;100877;-35
2022/03/02 03:45:08;;;;;;;11.10;5.47;;;;;;;5.14;70.82;102635.19;5035427;27;100714;-35
2022/03/02 03:47:34;;;;;;;15.75;5.80;;;;;;;5.16;70.98;102652.19;5034914;27;100014;-35
2022/03/02 03:49:59;;;;;;;16.85;6.75;;;;;;;5.11;71.56;102641.50;5053865;27;96790;-35
2022/03/02 03:52:25;;;;;;;10.23;5.50;;;;;;;5.15;70.79;102650.41;5053539;27;99385;-35
2022/03/02 03:54:50;;;;;;;14.20;6.72;;;;;;;5.08;71.00;102637.03;5053848;27;97990;-35
2022/03/02 03:57:16;;;;;;;9.88;5.20;;;;;;;5.05;71.03;102630.78;5035637;27;96612;-35
2022/03/02 03:59:41;;;;;;;10.75;6.15;;;;;;;5.09;71.39;102641.50;5035780;27;96878;-35
2022/03/02 04:02:07;;;;;;;19.05;7.28;;;;;;;5.14;71.08;102640.56;5052715;27;123686;-35
2022/03/02 04:04:32;;;;;;;12.35;5.35;;;;;;;5.11;71.44;102641.50;5053349;27;97447;-35
2022/03/02 04:06:58;;;;;;;8.45;5.30;;;;;;;5.13;71.51;102645.06;5053334;27;96816;-35
2022/03/02 04:09:23;;;;;;;16.77;5.57;;;;;;;5.13;71.03;102638.81;5052981;27;113810;-35
2022/03/02 04:11:48;;;;;;;14.82;6.30;;;;;;;5.05;70.99;102625.44;5053171;27;97906;-35
2022/03/02 04:14:14;;;;;;;12.88;7.03;;;;;;;5.13;71.13;102636.13;5052568;27;126814;-35
2022/03/02 04:16:39;;;;;;;13.00;6.97;;;;;;;5.11;71.01;102634.31;5053445;27;96668;-35
2022/03/02 04:19:05;;;;;;;10.13;5.80;;;;;;;5.05;71.32;102620.97;5053361;27;96749;-35
2022/03/02 04:21:31;;;;;;;10.73;5.68;;;;;;;5.04;71.13;102619.16;5053217;27;99528;-35
2022/03/02 04:23:56;;;;;;;13.60;5.60;;;;;;;5.10;70.77;102620.91;5034862;27;100931;-35
2022/03/02 04:26:22;;;;;;;17.75;6.18;;;;;;;5.07;71.23;102618.25;5034810;27;96510;-35
2022/03/02 04:28:47;;;;;;;11.18;5.07;;;;;;;5.08;70.78;102620.94;5053502;27;96880;-35
2022/03/02 04:31:12;;;;;;;12.10;5.63;;;;;;;5.00;71.09;102601.28;5053158;27;97940;-35
2022/03/02 04:33:38;;;;;;;15.35;6.85;;;;;;;5.02;71.24;102614.72;5053175;27;97392;-35
2022/03/02 04:36:04;;;;;;;9.60;6.13;;;;;;;4.97;71.39;102603.13;5052931;27;96584;-35
2022/03/02 04:38:30;;;;;;;12.35;5.28;;;;;;;5.00;71.55;102609.34;5053204;27;96752;-35
2022/03/02 04:40:55;;;;;;;9.85;5.35;;;;;;;5.01;71.28;102607.59;5052928;27;99503;-35
2022/03/02 04:43:20;;;;;;;10.50;6.00;;;;;;;5.02;70.70;102609.34;5052668;27;112783;-35
2022/03/02 04:45:46;;;;;;;11.68;6.32;;;;;;;4.94;71.37;102592.44;5052898;27;96616;-35
2022/03/02 04:48:11;;;;;;;9.55;5.57;;;;;;;5.00;71.27;102608.47;5052663;27;96787;-35
2022/03/02 04:50:36;;;;;;;10.80;5.30;;;;;;;5.00;71.01;102603.09;5052783;27;99023;-35
2022/03/02 04:53:02;;;;;;;14.52;5.60;;;;;;;4.99;71.41;102593.28;5053091;27;102065;-35
2022/03/02 04:55:28;;;;;;;14.63;5.53;;;;;;;4.94;71.21;102587.94;5053137;27;96528;-35
2022/03/02 04:57:56;;;;;;;9.23;4.18;;;;;;;4.98;71.38;102595.09;5053395;27;96855;-35
2022/03/02 05:00:30;;;;;;;10.77;6.32;;;;;;;4.99;71.15;102590.59;5033750;27;101385;-35
2022/03/02 05:02:57;;;;;;;9.77;5.18;;;;;;;4.89;71.52;102577.25;5034437;27;102522;-35
2022/03/02 05:05:24;;;;;;;10.55;5.68;;;;;;;4.90;71.19;102584.38;5017319;27;96532;-35
2022/03/02 05:07:51;;;;;;;10.05;5.43;;;;;;;4.87;71.52;102575.50;5052602;27;96644;-35
2022/03/02 05:10:18;;;;;;;13.20;5.13;;;;;;;4.91;72.00;102582.63;5034148;27;99695;-35
2022/03/02 05:12:44;;;;;;;8.60;4.97;;;;;;;4.86;71.52;102576.38;5052424;27;99239;-35
2022/03/02 05:15:11;;;;;;;13.48;6.03;;;;;;;4.85;71.40;102582.66;5034378;27;96547;-35
2022/03/02 05:17:37;;;;;;;15.57;6.30;;;;;;;4.89;71.43;102592.47;5033606;27;96971;-35
2022/03/02 05:20:04;;;;;;;22.25;7.32;;;;;;;4.87;70.94;102586.22;5033989;27;100828;-35
2022/03/02 05:22:30;;;;;;;15.23;6.15;;;;;;;4.87;71.53;102587.13;5034157;27;100744;-35
2022/03/02 05:24:55;;;;;;;10.57;5.35;;;;;;;4.78;71.12;102573.78;5052114;27;96477;-35
2022/03/02 05:27:20;;;;;;;14.63;6.55;;;;;;;4.86;71.50;102596.09;5052569;27;96829;-35
2022/03/02 05:29:46;;;;;;;16.02;5.07;;;;;;;4.82;71.19;102586.28;5051730;27;99210;-35
2022/03/02 05:32:11;;;;;;;22.13;6.82;;;;;;;4.87;71.06;102600.53;5052123;27;111074;-35
2022/03/02 05:34:37;;;;;;;12.23;6.90;;;;;;;4.82;71.42;102583.59;5052453;27;96595;-35
2022/03/02 05:37:02;;;;;;;14.75;6.63;;;;;;;4.82;71.37;102577.34;5052502;27;96745;-35
2022/03/02 05:39:28;;;;;;;10.60;6.05;;;;;;;4.76;71.25;102563.97;5052320;27;97953;-35
2022/03/02 05:41:54;;;;;;;11.05;5.18;;;;;;;4.77;71.15;102566.66;5034097;27;100675;-35
2022/03/02 05:44:19;;;;;;;10.70;5.97;;;;;;;4.77;71.16;102569.34;5052449;27;96455;-35
2022/03/02 05:46:45;;;;;;;10.77;5.38;;;;;;;4.85;71.25;102583.56;5051554;27;109920;-35
2022/03/02 05:49:12;;;;;;;9.30;4.22;;;;;;;4.81;71.69;102567.50;5051801;27;98057;-35
2022/03/02 05:51:37;;;;;;;9.63;5.78;;;;;;;4.84;71.41;102578.22;5033647;27;100743;-35
2022/03/02 05:54:04;;;;;;;16.30;6.57;;;;;;;4.85;71.09;102582.66;5051555;27;118395;-35
2022/03/02 05:56:33;;;;;;;12.75;5.88;;;;;;;4.84;71.57;102586.28;5033916;27;96962;-35
2022/03/02 05:58:59;;;;;;;11.93;6.22;;;;;;;4.78;70.94;102579.16;5033577;27;100738;-35
2022/03/02 06:01:24;;;;;;;12.55;5.72;;;;;;;4.79;71.47;102585.41;5051638;27;97807;-35
2022/03/02 06:03:50;;;;;;;13.02;6.38;;;;;;;4.80;70.97;102588.09;5052159;27;96522;-35
2022/03/02 06:06:16;;;;;;;12.30;5.50;;;;;;;4.78;70.91;102591.69;5052000;27;96785;-35
2022/03/02 06:08:42;;;;;;;8.77;5.35;;;;;;;4.75;71.13;102586.34;5051848;27;98025;-35
2022/03/02 06:11:08;;;;;;;12.27;5.70;;;;;;;4.73;71.30;102583.69;5051827;27;97101;-35
2022/03/02 06:13:34;;;;;;;13.82;7.68;;;;;;;4.75;71.40;102589.03;5016372;27;98047;-36
2022/03/02 06:16:00;;;;;;;12.90;6.13;;;;;;;4.71;71.11;102584.59;5052002;27;96768;-35
2022/03/02 06:18:27;;;;;;;10.52;5.03;;;;;;;4.62;70.92;102567.69;5033660;27;98942;-35
2022/03/02 06:20:54;;;;;;;14.25;6.10;;;;;;;4.68;70.87;102572.09;5033249;27;101037;-36
2022/03/02 06:23:20;;;;;;;13.40;5.18;;;;;;;4.68;71.15;102581.03;5051725;27;96464;-35
2022/03/02 06:25:46;;;;;;;9.55;5.60;;;;;;;4.68;71.14;102586.41;5033417;27;96657;-35
2022/03/02 06:28:11;;;;;;;11.23;6.47;;;;;;;4.72;70.85;102594.41;5052841;27;99294;-35
2022/03/02 06:30:36;;;;;;;9.27;5.57;;;;;;;4.70;70.81;102596.25;5054432;27;126922;-35
2022/03/02 06:33:02;;;;;;;12.07;5.85;;;;;;;4.65;70.91;102593.59;5036513;27;108142;-35
2022/03/02 06:35:27;;;;;;;10.85;5.82;;;;;;;4.61;70.47;102584.69;5054895;27;108282;-35
2022/03/02 06:37:52;;;;;;;12.15;6.90;;;;;;;4.67;70.74;102590.00;5054668;27;97723;-35
2022/03/02 06:40:18;;;;;;;15.65;5.97;;;;;;;4.65;70.99;102594.50;5054967;27;97821;-35
2022/03/02 06:43:01;;;;;;;13.77;5.78;;;;;;;4.70;70.76;102606.97;5054986;27;96651;-35
2022/03/02 06:45:33;;;;;;;8.73;5.20;;;;;;;4.66;70.62;102598.06;5055117;27;96605;-35
2022/03/02 06:48:08;;;;;;;8.15;5.32;;;;;;;4.64;70.67;102595.38;5019695;27;100819;-35
2022/03/02 06:50:37;;;;;;;12.73;6.05;;;;;;;4.72;70.91;102608.75;5036561;27;100994;-35
2022/03/02 06:53:04;;;;;;;14.30;5.03;;;;;;;4.68;70.28;102591.75;5036240;27;99012;-35
2022/03/02 06:55:30;;;;;;;10.82;7.18;;;;;;;4.68;69.94;102591.75;5036915;27;96815;-35
2022/03/02 06:57:59;;;;;;;9.50;5.85;;;;;;;4.74;70.05;102609.59;5054198;27;117022;-35
2022/03/02 07:00:25;;;;;;;7.93;4.47;;;;;;;4.74;70.32;102604.22;5054223;27;99299;-35
2022/03/02 07:02:52;;;;;;;9.60;5.38;;;;;;;4.77;70.29;102612.28;5035926;27;97412;-35
2022/03/02 07:05:19;;;;;;;14.32;6.45;;;;;;;4.78;70.29;102605.09;5054584;27;96751;-35
2022/03/02 07:07:46;;;;;;;10.60;5.85;;;;;;;4.72;70.10;102598.00;5036214;27;100823;-35
2022/03/02 07:10:12;;;;;;;17.30;6.55;;;;;;;4.79;69.86;102604.19;5036178;27;101060;-35
2022/03/02 07:12:38;;;;;;;14.02;6.55;;;;;;;4.81;69.78;102607.75;5054834;27;96500;-35
2022/03/02 07:15:05;;;;;;;9.95;5.53;;;;;;;4.87;69.97;102616.66;5036327;27;96844;-35
2022/03/02 07:17:32;;;;;;;11.40;5.38;;;;;;;4.85;69.82;102606.84;5035973;27;101165;-35
2022/03/02 07:19:58;;;;;;;14.38;7.07;;;;;;;4.91;69.60;102614.84;5054582;27;97779;-35
2022/03/02 07:22:30;;;;;;;15.18;6.32;;;;;;;4.98;69.29;102621.03;5035716;27;96736;-35
2022/03/02 07:25:00;;;;;;;8.68;5.20;;;;;;;5.02;69.54;102612.03;5036041;27;96788;-35
2022/03/02 07:27:26;;;;;;;8.90;5.82;;;;;;;5.07;69.60;102603.00;5053678;27;98419;-35
2022/03/02 07:29:53;;;;;;;14.88;8.52;;;;;;;5.06;68.96;102600.38;5053744;27;103211;-35
2022/03/02 07:32:31;;;;;;;21.73;7.68;;;;;;;5.10;68.86;102605.69;5035797;27;96586;-35
2022/03/02 07:34:58;;;;;;;15.05;7.68;;;;;;;5.22;69.22;102610.03;5035639;27;96837;-35
2022/03/02 07:37:26;;;;;;;10.27;6.50;;;;;;;5.26;68.33;102602.81;5035571;27;100930;-35
2022/03/02 07:39:52;;;;;;;10.52;6.35;;;;;;;5.33;67.93;102608.09;5053145;27;97383;-35
2022/03/02 07:42:19;;;;;;;11.80;5.15;;;;;;;5.43;68.05;102606.19;5035635;27;96581;-35
2022/03/02 07:44:46;;;;;;;13.07;6.28;;;;;;;5.52;67.73;102606.09;5036031;27;96764;-35
2022/03/02 07:47:11;;;;;;;14.32;5.85;;;;;;;5.54;67.30;102608.78;5035596;27;100760;-35
2022/03/02 07:49:37;;;;;;;9.65;5.97;;;;;;;5.50;66.47;102601.66;5053856;27;97414;-35
2022/03/02 07:52:06;;;;;;;14.75;7.18;;;;;;;5.60;66.67;102619.47;5053451;27;96653;-35
2022/03/02 07:54:37;;;;;;;9.63;5.18;;;;;;;5.50;66.87;102597.16;5053793;27;96749;-35
2022/03/02 07:57:04;;;;;;;13.63;5.50;;;;;;;5.60;66.23;102614.09;5035496;27;100919;-35
2022/03/02 07:59:36;;;;;;;11.52;5.38;;;;;;;5.62;66.28;102617.63;5035408;27;100905;-35
2022/03/02 08:02:04;;;;;;;8.77;4.70;;;;;;;5.62;66.41;102612.25;5053355;27;96664;-35
2022/03/02 08:04:31;;;;;;;7.32;4.90;;;;;;;5.67;64.90;102617.56;5035488;27;96805;-35
2022/03/02 08:06:56;;;;;;;9.48;4.80;;;;;;;5.69;65.53;102622.00;5034909;27;100742;-35
2022/03/02 08:09:21;;;;;;;17.02;6.05;;;;;;;5.66;66.10;102610.41;5053358;27;113977;-35
2022/03/02 08:11:47;;;;;;;10.82;4.55;;;;;;;5.63;64.21;102603.28;5052943;27;115762;-35
2022/03/02 08:14:12;;;;;;;14.32;5.70;;;;;;;5.67;65.01;102602.34;5053639;27;96765;-35
2022/03/02 08:16:38;;;;;;;7.57;4.00;;;;;;;5.63;64.61;102592.53;5052631;27;99460;-35
2022/03/02 08:19:05;;;;;;;9.85;3.15;;;;;;;5.68;63.18;102616.69;5018402;27;100969;-35
2022/03/02 08:21:31;;;;;;;7.43;4.07;;;;;;;5.66;63.34;102596.97;5053588;27;96637;-35
2022/03/02 08:24:01;;;;;;;6.85;3.15;;;;;;;5.71;63.81;102597.81;5053245;27;96810;-35
2022/03/02 08:26:28;;;;;;;15.70;5.38;;;;;;;5.83;64.88;102615.56;5034928;27;101308;-35
2022/03/02 08:28:56;;;;;;;11.95;6.28;;;;;;;5.85;63.87;102611.97;5034406;27;101280;-36
2022/03/02 08:31:24;;;;;;;10.95;5.38;;;;;;;5.90;63.79;102612.78;5035038;27;96575;-35
2022/03/02 08:33:51;;;;;;;11.98;5.35;;;;;;;5.86;63.26;102599.41;5053761;27;96728;-35
2022/03/02 08:36:21;;;;;;;12.68;6.10;;;;;;;5.86;62.56;102602.97;5034809;27;101019;-35
2022/03/02 08:38:49;;;;;;;14.38;5.63;;;;;;;5.95;62.68;102608.25;5034881;27;100461;-35
2022/03/02 08:41:17;;;;;;;11.93;5.82;;;;;;;6.03;64.07;102608.16;5034439;27;97332;-35
2022/03/02 08:43:44;;;;;;;7.03;4.13;;;;;;;6.10;62.76;102611.63;5034590;27;96970;-35
2022/03/02 08:46:10;;;;;;;9.90;4.60;;;;;;;6.02;63.31;102590.22;5034594;27;100739;-35
2022/03/02 08:48:35;;;;;;;10.32;5.82;;;;;;;6.09;63.60;102602.69;5053078;27;97803;-35
2022/03/02 08:51:01;;;;;;;9.73;3.72;;;;;;;6.14;62.31;102598.13;5052805;27;96868;-35
2022/03/02 08:53:27;;;;;;;16.23;6.82;;;;;;;6.22;64.02;102594.44;5052814;27;96793;-35
2022/03/02 08:55:55;;;;;;;8.07;5.45;;;;;;;6.18;62.73;102590.91;5034501;27;100964;-35
2022/03/02 08:58:22;;;;;;;10.02;5.63;;;;;;;6.19;62.97;102587.28;5034646;27;101040;-36
2022/03/02 09:00:51;;;;;;;16.85;5.63;;;;;;;6.26;63.49;102599.75;5034361;27;96668;-35
2022/03/02 09:03:17;;;;;;;10.55;3.97;;;;;;;6.26;61.46;102588.09;5034975;27;96840;-36
2022/03/02 09:05:43;;;;;;;8.02;4.13;;;;;;;6.27;62.88;102593.47;5033359;27;101510;-35
2022/03/02 09:08:08;;;;;;;10.73;4.97;;;;;;;6.27;61.59;102587.16;5052880;27;97822;-35
2022/03/02 09:10:35;;;;;;;9.20;4.55;;;;;;;6.30;61.30;102597.91;5053131;27;96474;-35
2022/03/02 09:13:02;;;;;;;20.90;5.43;;;;;;;6.31;61.54;102576.34;5034512;27;96805;-35
2022/03/02 09:15:28;;;;;;;7.65;4.72;;;;;;;6.41;61.25;102586.94;5052558;27;97897;-35
2022/03/02 09:17:53;;;;;;;9.10;5.32;;;;;;;6.44;61.88;102571.66;5034235;27;101632;-35
2022/03/02 09:20:19;;;;;;;12.80;5.82;;;;;;;6.60;60.88;102583.03;5052445;27;96522;-35
2022/03/02 09:22:45;;;;;;;14.38;5.35;;;;;;;6.68;61.48;102585.63;5053102;27;96862;-35
2022/03/02 09:25:11;;;;;;;10.65;4.90;;;;;;;6.75;61.05;102573.81;5052634;27;97376;-35
2022/03/02 09:27:36;;;;;;;11.75;5.18;;;;;;;6.83;59.85;102571.88;5052294;27;97877;-35
2022/03/02 09:30:06;;;;;;;5.47;2.97;;;;;;;6.90;60.06;102567.25;5051867;27;96811;-35
2022/03/02 09:32:33;;;;;;;6.78;3.47;;;;;;;7.05;56.93;102583.13;5052528;27;96716;-35
2022/03/02 09:34:59;;;;;;;8.13;4.35;;;;;;;7.10;58.19;102569.56;5033929;27;101053;-35
2022/03/02 09:37:27;;;;;;;11.23;4.72;;;;;;;7.23;58.71;102563.03;5052245;27;97866;-35
2022/03/02 09:39:53;;;;;;;11.43;4.85;;;;;;;7.40;58.22;102560.88;5017223;27;96797;-35
2022/03/02 09:42:25;;;;;;;14.45;5.53;;;;;;;7.68;56.87;102575.59;5034146;27;96564;-35
2022/03/02 09:45:02;;;;;;;9.07;4.82;;;;;;;7.91;57.72;102572.38;5034004;27;100550;-35
2022/03/02 09:47:43;;;;;;;9.02;4.43;;;;;;;8.24;55.61;102570.69;5034230;27;100397;-35
2022/03/02 09:50:14;;;;;;;9.27;4.47;;;;;;;8.45;56.23;102572.03;5052431;27;96601;-35
2022/03/02 09:52:42;;;;;;;9.73;4.40;;;;;;;8.59;53.63;102566.28;5034007;27;96692;-35
2022/03/02 09:55:13;;;;;;;10.48;4.70;;;;;;;8.89;52.16;102568.19;5033224;27;100846;-35
2022/03/02 09:58:01;;;;;;;22.90;4.10;;;;;;;9.08;54.56;102559.56;5033763;27;100846;-34
2022/03/02 10:00:29;;;;;;;7.50;4.72;;;;;;;9.40;54.30;102557.78;5051736;27;96768;-35
2022/03/02 10:03:00;;;;;;;7.72;4.30;;;;;;;9.48;51.08;102561.13;5034929;27;96825;-35
2022/03/02 10:05:28;;;;;;;11.55;4.53;;;;;;;9.77;51.78;102555.75;5036535;27;101149;-35
2022/03/02 10:08:07;;;;;;;19.90;5.40;;;;;;;10.07;50.16;102542.16;5055696;27;98041;-35
2022/03/02 10:10:36;;;;;;;11.65;4.88;;;;;;;10.17;49.31;102538.22;5037215;27;96611;-35
2022/03/02 10:13:11;;;;;;;10.57;4.35;;;;;;;10.27;49.55;102551.44;5037679;27;96886;-35
2022/03/02 10:15:39;;;;;;;12.15;6.05;;;;;;;10.47;51.36;102561.69;5037033;27;100835;-35
2022/03/02 10:18:07;;;;;;;13.77;5.32;;;;;;;10.56;50.44;102543.28;5036858;27;101510;-35
2022/03/02 10:20:37;;;;;;;14.73;5.20;;;;;;;10.71;48.89;102554.53;5054753;27;96638;-35
2022/03/02 10:23:23;;;;;;;13.38;5.18;;;;;;;10.72;47.88;102545.44;5055159;27;97214;-35
2022/03/02 10:26:00;;;;;;;14.02;6.30;;;;;;;10.89;46.77;102553.00;5054797;27;99058;-35
2022/03/02 10:28:27;;;;;;;13.15;4.75;;;;;;;10.86;47.73;102547.69;5036824;27;100733;-35
2022/03/02 10:31:37;;;;;;;14.85;5.22;;;;;;;10.95;46.28;102547.38;5036989;27;96566;-35
2022/03/02 10:34:29;;;;;;;12.73;5.18;;;;;;;11.02;44.42;102538.94;5055335;27;96595;-35
2022/03/02 10:37:14;;;;;;;12.65;4.68;;;;;;;11.20;46.22;102544.63;5036383;27;100862;-35
2022/03/02 10:40:09;;;;;;;15.30;5.70;;;;;;;11.40;47.60;102539.34;5012917;27;97365;-34
2022/03/02 10:42:41;;;;;;;13.13;4.22;;;;;;;11.53;45.43;102530.75;5055059;27;96658;-35
2022/03/02 10:45:09;;;;;;;15.93;5.88;;;;;;;11.66;45.46;102532.03;5037006;27;96878;-35
2022/03/02 10:48:02;;;;;;;18.65;5.82;;;;;;;11.76;44.76;102536.16;5054036;27;99500;-35
2022/03/02 10:50:32;;;;;;;13.00;6.28;;;;;;;11.83;45.77;102518.69;5036348;27;101196;-35
2022/03/02 10:52:58;;;;;;;14.05;5.38;;;;;;;12.08;47.47;102515.91;5036450;27;96702;-35
2022/03/02 10:55:24;;;;;;;18.65;6.50;;;;;;;12.22;48.12;102523.47;5036588;27;96962;-35
2022/03/02 10:57:52;;;;;;;14.43;5.72;;;;;;;12.28;46.52;102516.91;5036214;27;100666;-35
2022/03/02 11:00:20;;;;;;;9.95;5.00;;;;;;;12.54;47.14;102524.81;5035992;27;100302;-35
2022/03/02 11:02:57;;;;;;;9.55;5.55;;;;;;;12.62;44.30;102521.78;5036407;27;96640;-35
2022/03/02 11:05:26;;;;;;;14.85;5.10;;;;;;;12.75;47.70;102522.09;5054270;27;96782;-34
2022/03/02 11:07:52;;;;;;;17.67;6.60;;;;;;;12.91;44.74;102512.31;5036184;27;100026;-35
2022/03/02 11:10:20;;;;;;;12.25;5.88;;;;;;;13.07;45.98;102517.97;5035948;27;101411;-34
2022/03/02 11:12:48;;;;;;;15.73;6.05;;;;;;;13.02;44.14;102514.56;5018878;27;97137;-35
2022/03/02 11:15:15;;;;;;;23.05;7.68;;;;;;;13.22;44.57;102518.22;5034940;27;96840;-35
2022/03/02 11:17:50;;;;;;;10.90;4.90;;;;;;;13.09;41.42;102512.47;5054090;27;99051;-35
2022/03/02 11:20:15;;;;;;;18.70;5.78;;;;;;;13.28;44.40;102509.81;5054407;27;97838;-35
2022/03/02 11:22:50;;;;;;;15.60;6.07;;;;;;;13.35;44.53;102509.47;5054395;27;96499;-35
2022/03/02 11:25:16;;;;;;;13.63;6.57;;;;;;;13.12;45.87;102499.59;5054495;27;96677;-35